sensor_id;sensor_type;location;lat;lon;timestamp;P1;durP1;ratioP1;P2;durP2;ratioP2
11943;SDS011;6031;50.220;10.122;2023-03-25T00:00:53;1.33;;;1.23;;
11943;SDS011;6031;50.220;10.122;2023-03-25T00:03:21;3.67;;;1.53;;
11943;SDS011;6031;50.220;10.122;2023-03-25T00:05:48;26.33;;;11.27;;
11943;SDS011;6031;50.220;10.122;2023-03-25T00:08:13;3.97;;;2.47;;
11943;SDS011;6031;50.220;10.122;2023-03-25T00:10:39;2.30;;;1.63;;
11943;SDS011;6031;50.220;10.122;2023-03-25T00:13:05;12.10;;;7.93;;
11943;SDS011;6031;50.220;10.122;2023-03-25T00:15:32;5.67;;;2.97;;
11943;SDS011;6031;50.220;10.122;2023-03-25T00:17:58;11.97;;;6.93;;
11943;SDS011;6031;50.220;10.122;2023-03-25T00:20:25;40.00;;;20.60;;
11943;SDS011;6031;50.220;10.122;2023-03-25T00:22:52;66.30;;;33.03;;
11943;SDS011;6031;50.220;10.122;2023-03-25T00:25:18;30.17;;;17.57;;
11943;SDS011;6031;50.220;10.122;2023-03-25T00:27:45;4.50;;;3.37;;
11943;SDS011;6031;50.220;10.122;2023-03-25T00:30:16;7.60;;;2.37;;
11943;SDS011;6031;50.220;10.122;2023-03-25T00:32:43;9.37;;;5.47;;
11943;SDS011;6031;50.220;10.122;2023-03-25T00:35:16;10.23;;;6.23;;
11943;SDS011;6031;50.220;10.122;2023-03-25T00:37:43;7.30;;;4.70;;
11943;SDS011;6031;50.220;10.122;2023-03-25T00:40:09;10.90;;;4.77;;
11943;SDS011;6031;50.220;10.122;2023-03-25T00:42:35;22.97;;;12.13;;
11943;SDS011;6031;50.220;10.122;2023-03-25T00:45:01;18.63;;;9.63;;
11943;SDS011;6031;50.220;10.122;2023-03-25T00:47:27;28.40;;;15.10;;
11943;SDS011;6031;50.220;10.122;2023-03-25T00:49:53;11.70;;;7.43;;
11943;SDS011;6031;50.220;10.122;2023-03-25T00:52:18;8.13;;;5.17;;
11943;SDS011;6031;50.220;10.122;2023-03-25T00:54:46;4.47;;;2.77;;
11943;SDS011;6031;50.220;10.122;2023-03-25T00:57:12;9.37;;;6.63;;
11943;SDS011;6031;50.220;10.122;2023-03-25T00:59:38;4.40;;;3.07;;
11943;SDS011;6031;50.220;10.122;2023-03-25T01:02:03;1.53;;;1.20;;
11943;SDS011;6031;50.220;10.122;2023-03-25T01:04:30;7.80;;;3.93;;
11943;SDS011;6031;50.220;10.122;2023-03-25T01:06:56;1.50;;;1.23;;
11943;SDS011;6031;50.220;10.122;2023-03-25T01:09:22;3.00;;;2.00;;
11943;SDS011;6031;50.220;10.122;2023-03-25T01:11:48;1.57;;;0.73;;
11943;SDS011;6031;50.220;10.122;2023-03-25T01:14:18;5.37;;;1.30;;
11943;SDS011;6031;50.220;10.122;2023-03-25T01:16:48;4.77;;;1.47;;
11943;SDS011;6031;50.220;10.122;2023-03-25T01:19:13;2.00;;;1.00;;
11943;SDS011;6031;50.220;10.122;2023-03-25T01:21:39;2.73;;;1.13;;
11943;SDS011;6031;50.220;10.122;2023-03-25T01:24:05;2.20;;;0.87;;
11943;SDS011;6031;50.220;10.122;2023-03-25T01:26:32;1.33;;;0.70;;
11943;SDS011;6031;50.220;10.122;2023-03-25T01:28:58;0.30;;;0.30;;
11943;SDS011;6031;50.220;10.122;2023-03-25T01:31:23;1.93;;;0.63;;
11943;SDS011;6031;50.220;10.122;2023-03-25T01:33:57;0.20;;;0.20;;
11943;SDS011;6031;50.220;10.122;2023-03-25T01:36:23;1.53;;;0.70;;
11943;SDS011;6031;50.220;10.122;2023-03-25T01:38:53;0.33;;;0.33;;
11943;SDS011;6031;50.220;10.122;2023-03-25T01:41:19;1.03;;;0.87;;
11943;SDS011;6031;50.220;10.122;2023-03-25T01:44:01;1.40;;;0.53;;
11943;SDS011;6031;50.220;10.122;2023-03-25T01:46:54;1.90;;;1.60;;
11943;SDS011;6031;50.220;10.122;2023-03-25T01:49:22;4.30;;;1.07;;
11943;SDS011;6031;50.220;10.122;2023-03-25T01:51:56;1.13;;;0.80;;
11943;SDS011;6031;50.220;10.122;2023-03-25T01:54:27;1.40;;;0.73;;
11943;SDS011;6031;50.220;10.122;2023-03-25T01:56:53;4.13;;;1.73;;
11943;SDS011;6031;50.220;10.122;2023-03-25T01:59:20;0.30;;;0.30;;
11943;SDS011;6031;50.220;10.122;2023-03-25T02:01:48;3.80;;;2.17;;
11943;SDS011;6031;50.220;10.122;2023-03-25T02:04:16;1.97;;;1.20;;
11943;SDS011;6031;50.220;10.122;2023-03-25T02:06:51;1.77;;;0.90;;
11943;SDS011;6031;50.220;10.122;2023-03-25T02:09:18;0.40;;;0.40;;
11943;SDS011;6031;50.220;10.122;2023-03-25T02:11:46;0.57;;;0.50;;
11943;SDS011;6031;50.220;10.122;2023-03-25T02:14:13;0.33;;;0.33;;
11943;SDS011;6031;50.220;10.122;2023-03-25T02:16:44;0.67;;;0.50;;
11943;SDS011;6031;50.220;10.122;2023-03-25T02:24:45;0.70;;;0.70;;
11943;SDS011;6031;50.220;10.122;2023-03-25T02:30:30;0.80;;;0.70;;
11943;SDS011;6031;50.220;10.122;2023-03-25T02:35:49;0.30;;;0.30;;
11943;SDS011;6031;50.220;10.122;2023-03-25T02:38:39;0.63;;;0.43;;
11943;SDS011;6031;50.220;10.122;2023-03-25T02:41:13;0.80;;;0.77;;
11943;SDS011;6031;50.220;10.122;2023-03-25T02:43:57;1.13;;;0.57;;
11943;SDS011;6031;50.220;10.122;2023-03-25T02:46:26;0.87;;;0.60;;
11943;SDS011;6031;50.220;10.122;2023-03-25T02:51:39;0.40;;;0.40;;
11943;SDS011;6031;50.220;10.122;2023-03-25T02:54:10;1.07;;;0.63;;
11943;SDS011;6031;50.220;10.122;2023-03-25T02:56:38;2.03;;;0.50;;
11943;SDS011;6031;50.220;10.122;2023-03-25T02:59:05;0.70;;;0.40;;
11943;SDS011;6031;50.220;10.122;2023-03-25T03:01:34;0.40;;;0.40;;
11943;SDS011;6031;50.220;10.122;2023-03-25T03:04:00;1.33;;;0.70;;
11943;SDS011;6031;50.220;10.122;2023-03-25T03:06:26;1.57;;;0.70;;
11943;SDS011;6031;50.220;10.122;2023-03-25T03:08:56;0.90;;;0.80;;
11943;SDS011;6031;50.220;10.122;2023-03-25T03:14:10;0.60;;;0.60;;
11943;SDS011;6031;50.220;10.122;2023-03-25T03:16:52;0.80;;;0.80;;
11943;SDS011;6031;50.220;10.122;2023-03-25T03:19:43;2.90;;;0.80;;
11943;SDS011;6031;50.220;10.122;2023-03-25T03:30:50;3.33;;;0.90;;
11943;SDS011;6031;50.220;10.122;2023-03-25T03:36:19;2.00;;;0.70;;
11943;SDS011;6031;50.220;10.122;2023-03-25T03:38:53;1.90;;;0.70;;
11943;SDS011;6031;50.220;10.122;2023-03-25T03:41:29;0.60;;;0.60;;
11943;SDS011;6031;50.220;10.122;2023-03-25T03:44:00;2.93;;;0.90;;
11943;SDS011;6031;50.220;10.122;2023-03-25T03:46:35;1.87;;;0.93;;
11943;SDS011;6031;50.220;10.122;2023-03-25T03:49:07;1.77;;;1.37;;
11943;SDS011;6031;50.220;10.122;2023-03-25T03:51:37;3.13;;;1.27;;
11943;SDS011;6031;50.220;10.122;2023-03-25T03:54:16;1.43;;;0.80;;
11943;SDS011;6031;50.220;10.122;2023-03-25T03:56:48;2.87;;;1.03;;
11943;SDS011;6031;50.220;10.122;2023-03-25T03:59:44;2.60;;;0.97;;
11943;SDS011;6031;50.220;10.122;2023-03-25T04:02:19;1.87;;;1.10;;
11943;SDS011;6031;50.220;10.122;2023-03-25T04:05:08;1.93;;;1.20;;
11943;SDS011;6031;50.220;10.122;2023-03-25T04:10:10;2.20;;;0.90;;
11943;SDS011;6031;50.220;10.122;2023-03-25T04:12:40;1.70;;;1.27;;
11943;SDS011;6031;50.220;10.122;2023-03-25T04:15:08;4.33;;;3.43;;
11943;SDS011;6031;50.220;10.122;2023-03-25T04:17:34;2.10;;;1.43;;
11943;SDS011;6031;50.220;10.122;2023-03-25T04:20:00;3.17;;;2.27;;
11943;SDS011;6031;50.220;10.122;2023-03-25T04:22:32;2.10;;;1.50;;
11943;SDS011;6031;50.220;10.122;2023-03-25T04:24:58;1.70;;;1.60;;
11943;SDS011;6031;50.220;10.122;2023-03-25T04:27:24;2.10;;;1.27;;
11943;SDS011;6031;50.220;10.122;2023-03-25T04:29:53;5.37;;;3.27;;
11943;SDS011;6031;50.220;10.122;2023-03-25T04:32:21;2.80;;;2.17;;
11943;SDS011;6031;50.220;10.122;2023-03-25T04:34:47;2.17;;;1.30;;
11943;SDS011;6031;50.220;10.122;2023-03-25T04:37:13;2.07;;;1.67;;
11943;SDS011;6031;50.220;10.122;2023-03-25T04:39:38;2.00;;;1.50;;
11943;SDS011;6031;50.220;10.122;2023-03-25T04:42:04;1.93;;;1.57;;
11943;SDS011;6031;50.220;10.122;2023-03-25T04:44:30;0.70;;;0.70;;
11943;SDS011;6031;50.220;10.122;2023-03-25T04:47:03;3.00;;;2.80;;
11943;SDS011;6031;50.220;10.122;2023-03-25T04:49:30;2.57;;;1.00;;
11943;SDS011;6031;50.220;10.122;2023-03-25T04:51:56;1.93;;;1.00;;
11943;SDS011;6031;50.220;10.122;2023-03-25T04:54:23;28.60;;;17.07;;
11943;SDS011;6031;50.220;10.122;2023-03-25T04:56:49;4.40;;;2.93;;
11943;SDS011;6031;50.220;10.122;2023-03-25T04:59:16;13.37;;;6.90;;
11943;SDS011;6031;50.220;10.122;2023-03-25T05:01:42;16.50;;;9.37;;
11943;SDS011;6031;50.220;10.122;2023-03-25T05:04:10;5.40;;;2.83;;
11943;SDS011;6031;50.220;10.122;2023-03-25T05:06:37;6.50;;;3.53;;
11943;SDS011;6031;50.220;10.122;2023-03-25T05:09:06;5.73;;;3.60;;
11943;SDS011;6031;50.220;10.122;2023-03-25T05:11:35;6.57;;;3.77;;
11943;SDS011;6031;50.220;10.122;2023-03-25T05:14:03;5.80;;;4.23;;
11943;SDS011;6031;50.220;10.122;2023-03-25T05:16:29;14.10;;;7.50;;
11943;SDS011;6031;50.220;10.122;2023-03-25T05:18:55;7.77;;;4.67;;
11943;SDS011;6031;50.220;10.122;2023-03-25T05:21:20;17.37;;;9.87;;
11943;SDS011;6031;50.220;10.122;2023-03-25T05:23:46;12.30;;;7.90;;
11943;SDS011;6031;50.220;10.122;2023-03-25T05:26:12;1.10;;;1.10;;
11943;SDS011;6031;50.220;10.122;2023-03-25T05:28:38;6.30;;;3.47;;
11943;SDS011;6031;50.220;10.122;2023-03-25T05:31:04;2.73;;;2.10;;
11943;SDS011;6031;50.220;10.122;2023-03-25T05:33:32;2.53;;;1.63;;
11943;SDS011;6031;50.220;10.122;2023-03-25T05:36:10;1.77;;;0.90;;
11943;SDS011;6031;50.220;10.122;2023-03-25T05:38:38;2.13;;;1.90;;
11943;SDS011;6031;50.220;10.122;2023-03-25T05:41:09;2.27;;;1.63;;
11943;SDS011;6031;50.220;10.122;2023-03-25T05:43:40;0.90;;;0.87;;
11943;SDS011;6031;50.220;10.122;2023-03-25T05:46:14;2.20;;;0.80;;
11943;SDS011;6031;50.220;10.122;2023-03-25T05:48:41;6.07;;;4.20;;
11943;SDS011;6031;50.220;10.122;2023-03-25T05:51:11;4.23;;;0.90;;
11943;SDS011;6031;50.220;10.122;2023-03-25T05:53:40;2.63;;;0.90;;
11943;SDS011;6031;50.220;10.122;2023-03-25T05:56:13;2.10;;;1.63;;
11943;SDS011;6031;50.220;10.122;2023-03-25T05:58:41;1.37;;;1.27;;
11943;SDS011;6031;50.220;10.122;2023-03-25T06:01:08;2.67;;;1.23;;
11943;SDS011;6031;50.220;10.122;2023-03-25T06:03:40;1.53;;;1.30;;
11943;SDS011;6031;50.220;10.122;2023-03-25T06:06:06;2.03;;;1.90;;
11943;SDS011;6031;50.220;10.122;2023-03-25T06:08:38;2.03;;;1.93;;
11943;SDS011;6031;50.220;10.122;2023-03-25T06:11:05;0.70;;;0.70;;
11943;SDS011;6031;50.220;10.122;2023-03-25T06:13:33;1.37;;;0.97;;
11943;SDS011;6031;50.220;10.122;2023-03-25T06:16:02;2.17;;;1.53;;
11943;SDS011;6031;50.220;10.122;2023-03-25T06:18:29;1.40;;;1.20;;
11943;SDS011;6031;50.220;10.122;2023-03-25T06:20:55;1.10;;;1.03;;
11943;SDS011;6031;50.220;10.122;2023-03-25T06:23:22;1.10;;;1.00;;
11943;SDS011;6031;50.220;10.122;2023-03-25T06:25:49;0.70;;;0.70;;
11943;SDS011;6031;50.220;10.122;2023-03-25T06:28:15;2.20;;;1.73;;
11943;SDS011;6031;50.220;10.122;2023-03-25T06:30:43;1.37;;;0.93;;
11943;SDS011;6031;50.220;10.122;2023-03-25T06:33:09;2.17;;;1.00;;
11943;SDS011;6031;50.220;10.122;2023-03-25T06:35:35;2.93;;;1.00;;
11943;SDS011;6031;50.220;10.122;2023-03-25T06:38:00;3.80;;;1.10;;
11943;SDS011;6031;50.220;10.122;2023-03-25T06:40:26;1.43;;;0.83;;
11943;SDS011;6031;50.220;10.122;2023-03-25T06:42:52;1.53;;;1.37;;
11943;SDS011;6031;50.220;10.122;2023-03-25T06:45:17;2.13;;;1.20;;
11943;SDS011;6031;50.220;10.122;2023-03-25T06:47:43;2.00;;;0.97;;
11943;SDS011;6031;50.220;10.122;2023-03-25T06:50:08;1.30;;;1.10;;
11943;SDS011;6031;50.220;10.122;2023-03-25T06:52:34;1.10;;;1.00;;
11943;SDS011;6031;50.220;10.122;2023-03-25T06:55:00;3.17;;;1.77;;
11943;SDS011;6031;50.220;10.122;2023-03-25T06:57:25;1.63;;;0.97;;
11943;SDS011;6031;50.220;10.122;2023-03-25T06:59:51;1.83;;;1.10;;
11943;SDS011;6031;50.220;10.122;2023-03-25T07:02:16;2.90;;;1.10;;
11943;SDS011;6031;50.220;10.122;2023-03-25T07:04:42;1.17;;;0.90;;
11943;SDS011;6031;50.220;10.122;2023-03-25T07:07:08;2.30;;;1.23;;
11943;SDS011;6031;50.220;10.122;2023-03-25T07:09:33;3.93;;;1.53;;
11943;SDS011;6031;50.220;10.122;2023-03-25T07:11:59;1.87;;;0.93;;
11943;SDS011;6031;50.220;10.122;2023-03-25T07:14:25;1.17;;;0.97;;
11943;SDS011;6031;50.220;10.122;2023-03-25T07:16:51;1.73;;;1.10;;
11943;SDS011;6031;50.220;10.122;2023-03-25T07:19:16;1.23;;;1.13;;
11943;SDS011;6031;50.220;10.122;2023-03-25T07:21:42;2.07;;;1.40;;
11943;SDS011;6031;50.220;10.122;2023-03-25T07:24:07;2.23;;;1.93;;
11943;SDS011;6031;50.220;10.122;2023-03-25T07:26:33;1.27;;;1.17;;
11943;SDS011;6031;50.220;10.122;2023-03-25T07:28:58;2.50;;;1.37;;
11943;SDS011;6031;50.220;10.122;2023-03-25T07:31:24;2.60;;;1.27;;
11943;SDS011;6031;50.220;10.122;2023-03-25T07:33:49;3.40;;;1.20;;
11943;SDS011;6031;50.220;10.122;2023-03-25T07:36:15;1.23;;;1.13;;
11943;SDS011;6031;50.220;10.122;2023-03-25T07:38:41;1.90;;;1.13;;
11943;SDS011;6031;50.220;10.122;2023-03-25T07:41:08;1.43;;;1.00;;
11943;SDS011;6031;50.220;10.122;2023-03-25T07:43:35;1.33;;;0.90;;
11943;SDS011;6031;50.220;10.122;2023-03-25T07:46:01;0.70;;;0.70;;
11943;SDS011;6031;50.220;10.122;2023-03-25T07:48:27;2.87;;;1.50;;
11943;SDS011;6031;50.220;10.122;2023-03-25T07:50:53;4.87;;;1.10;;
11943;SDS011;6031;50.220;10.122;2023-03-25T07:53:19;1.10;;;0.80;;
11943;SDS011;6031;50.220;10.122;2023-03-25T07:55:44;1.17;;;1.03;;
11943;SDS011;6031;50.220;10.122;2023-03-25T07:58:10;1.63;;;1.10;;
11943;SDS011;6031;50.220;10.122;2023-03-25T08:00:36;0.90;;;0.90;;
11943;SDS011;6031;50.220;10.122;2023-03-25T08:03:02;0.50;;;0.50;;
11943;SDS011;6031;50.220;10.122;2023-03-25T08:05:28;0.90;;;0.90;;
11943;SDS011;6031;50.220;10.122;2023-03-25T08:07:55;1.90;;;0.70;;
11943;SDS011;6031;50.220;10.122;2023-03-25T08:10:24;0.80;;;0.80;;
11943;SDS011;6031;50.220;10.122;2023-03-25T08:12:50;2.33;;;0.63;;
11943;SDS011;6031;50.220;10.122;2023-03-25T08:15:17;1.37;;;0.83;;
11943;SDS011;6031;50.220;10.122;2023-03-25T08:17:44;3.40;;;0.90;;
11943;SDS011;6031;50.220;10.122;2023-03-25T08:20:10;4.23;;;1.40;;
11943;SDS011;6031;50.220;10.122;2023-03-25T08:22:35;1.40;;;0.70;;
11943;SDS011;6031;50.220;10.122;2023-03-25T08:25:01;3.43;;;1.00;;
11943;SDS011;6031;50.220;10.122;2023-03-25T08:27:27;1.47;;;0.90;;
11943;SDS011;6031;50.220;10.122;2023-03-25T08:29:53;2.63;;;1.23;;
11943;SDS011;6031;50.220;10.122;2023-03-25T08:32:20;0.97;;;0.83;;
11943;SDS011;6031;50.220;10.122;2023-03-25T08:34:45;3.47;;;1.00;;
11943;SDS011;6031;50.220;10.122;2023-03-25T08:37:11;0.53;;;0.50;;
11943;SDS011;6031;50.220;10.122;2023-03-25T08:39:37;2.33;;;1.20;;
11943;SDS011;6031;50.220;10.122;2023-03-25T08:42:07;2.43;;;0.63;;
11943;SDS011;6031;50.220;10.122;2023-03-25T08:44:33;2.10;;;0.87;;
11943;SDS011;6031;50.220;10.122;2023-03-25T08:46:59;2.13;;;0.70;;
11943;SDS011;6031;50.220;10.122;2023-03-25T08:49:25;2.40;;;0.80;;
11943;SDS011;6031;50.220;10.122;2023-03-25T08:51:50;2.77;;;1.17;;
11943;SDS011;6031;50.220;10.122;2023-03-25T08:54:16;1.60;;;1.00;;
11943;SDS011;6031;50.220;10.122;2023-03-25T08:56:41;1.43;;;1.30;;
11943;SDS011;6031;50.220;10.122;2023-03-25T08:59:07;4.40;;;1.40;;
11943;SDS011;6031;50.220;10.122;2023-03-25T09:01:32;3.50;;;1.00;;
11943;SDS011;6031;50.220;10.122;2023-03-25T09:03:58;2.50;;;1.47;;
11943;SDS011;6031;50.220;10.122;2023-03-25T09:06:23;1.97;;;1.50;;
11943;SDS011;6031;50.220;10.122;2023-03-25T09:08:49;1.60;;;1.30;;
11943;SDS011;6031;50.220;10.122;2023-03-25T09:11:16;2.70;;;0.97;;
11943;SDS011;6031;50.220;10.122;2023-03-25T09:13:41;4.33;;;1.57;;
11943;SDS011;6031;50.220;10.122;2023-03-25T09:16:07;2.27;;;1.20;;
11943;SDS011;6031;50.220;10.122;2023-03-25T09:18:33;3.60;;;1.40;;
11943;SDS011;6031;50.220;10.122;2023-03-25T09:21:00;4.60;;;2.10;;
11943;SDS011;6031;50.220;10.122;2023-03-25T09:23:27;5.90;;;2.07;;
11943;SDS011;6031;50.220;10.122;2023-03-25T09:25:53;3.27;;;1.53;;
11943;SDS011;6031;50.220;10.122;2023-03-25T09:28:23;4.00;;;1.83;;
11943;SDS011;6031;50.220;10.122;2023-03-25T09:30:48;3.27;;;1.77;;
11943;SDS011;6031;50.220;10.122;2023-03-25T09:33:14;8.03;;;2.10;;
11943;SDS011;6031;50.220;10.122;2023-03-25T09:35:40;5.23;;;1.77;;
11943;SDS011;6031;50.220;10.122;2023-03-25T09:38:05;4.50;;;1.23;;
11943;SDS011;6031;50.220;10.122;2023-03-25T09:40:32;4.73;;;2.10;;
11943;SDS011;6031;50.220;10.122;2023-03-25T09:45:45;1.77;;;1.63;;
11943;SDS011;6031;50.220;10.122;2023-03-25T09:50:54;6.83;;;2.10;;
11943;SDS011;6031;50.220;10.122;2023-03-25T09:53:33;5.80;;;1.83;;
11943;SDS011;6031;50.220;10.122;2023-03-25T09:56:06;4.93;;;2.00;;
11943;SDS011;6031;50.220;10.122;2023-03-25T09:58:43;6.17;;;2.03;;
11943;SDS011;6031;50.220;10.122;2023-03-25T10:06:40;4.87;;;1.63;;
11943;SDS011;6031;50.220;10.122;2023-03-25T10:14:59;4.43;;;1.70;;
11943;SDS011;6031;50.220;10.122;2023-03-25T10:17:38;3.90;;;2.00;;
11943;SDS011;6031;50.220;10.122;2023-03-25T10:22:59;3.17;;;1.23;;
11943;SDS011;6031;50.220;10.122;2023-03-25T10:25:38;2.77;;;1.37;;
11943;SDS011;6031;50.220;10.122;2023-03-25T10:28:06;3.93;;;1.67;;
11943;SDS011;6031;50.220;10.122;2023-03-25T10:30:41;8.07;;;1.63;;
11943;SDS011;6031;50.220;10.122;2023-03-25T10:33:15;5.80;;;1.87;;
11943;SDS011;6031;50.220;10.122;2023-03-25T10:35:51;2.07;;;1.23;;
11943;SDS011;6031;50.220;10.122;2023-03-25T10:38:21;5.23;;;1.93;;
11943;SDS011;6031;50.220;10.122;2023-03-25T10:40:54;4.50;;;1.53;;
11943;SDS011;6031;50.220;10.122;2023-03-25T10:43:27;3.00;;;1.20;;
11943;SDS011;6031;50.220;10.122;2023-03-25T10:45:59;3.60;;;1.23;;
11943;SDS011;6031;50.220;10.122;2023-03-25T10:48:34;2.90;;;1.30;;
11943;SDS011;6031;50.220;10.122;2023-03-25T10:51:07;3.73;;;1.37;;
11943;SDS011;6031;50.220;10.122;2023-03-25T10:53:35;4.57;;;1.57;;
11943;SDS011;6031;50.220;10.122;2023-03-25T10:56:02;3.80;;;1.37;;
11943;SDS011;6031;50.220;10.122;2023-03-25T10:58:33;3.67;;;1.70;;
11943;SDS011;6031;50.220;10.122;2023-03-25T11:01:08;1.53;;;1.20;;
11943;SDS011;6031;50.220;10.122;2023-03-25T11:03:36;4.17;;;1.67;;
11943;SDS011;6031;50.220;10.122;2023-03-25T11:06:05;5.87;;;1.43;;
11943;SDS011;6031;50.220;10.122;2023-03-25T11:08:31;3.57;;;1.80;;
11943;SDS011;6031;50.220;10.122;2023-03-25T11:10:56;4.03;;;1.27;;
11943;SDS011;6031;50.220;10.122;2023-03-25T11:13:26;2.30;;;1.33;;
11943;SDS011;6031;50.220;10.122;2023-03-25T11:15:54;0.77;;;0.77;;
11943;SDS011;6031;50.220;10.122;2023-03-25T11:18:25;0.70;;;0.70;;
11943;SDS011;6031;50.220;10.122;2023-03-25T11:21:16;0.20;;;0.20;;
11943;SDS011;6031;50.220;10.122;2023-03-25T11:23:48;2.00;;;0.40;;
11943;SDS011;6031;50.220;10.122;2023-03-25T11:29:17;2.30;;;0.37;;
11943;SDS011;6031;50.220;10.122;2023-03-25T11:31:54;0.30;;;0.30;;
11943;SDS011;6031;50.220;10.122;2023-03-25T11:34:21;0.20;;;0.20;;
11943;SDS011;6031;50.220;10.122;2023-03-25T11:36:53;0.50;;;0.50;;
11943;SDS011;6031;50.220;10.122;2023-03-25T11:42:10;2.00;;;0.50;;
11943;SDS011;6031;50.220;10.122;2023-03-25T11:44:39;1.03;;;0.27;;
11943;SDS011;6031;50.220;10.122;2023-03-25T11:47:06;0.73;;;0.50;;
11943;SDS011;6031;50.220;10.122;2023-03-25T11:49:35;0.50;;;0.50;;
11943;SDS011;6031;50.220;10.122;2023-03-25T11:52:13;0.50;;;0.40;;
11943;SDS011;6031;50.220;10.122;2023-03-25T11:54:44;0.33;;;0.33;;
11943;SDS011;6031;50.220;10.122;2023-03-25T11:57:15;0.47;;;0.47;;
11943;SDS011;6031;50.220;10.122;2023-03-25T11:59:45;1.53;;;0.50;;
11943;SDS011;6031;50.220;10.122;2023-03-25T12:04:53;1.60;;;0.47;;
11943;SDS011;6031;50.220;10.122;2023-03-25T12:07:28;0.57;;;0.30;;
11943;SDS011;6031;50.220;10.122;2023-03-25T12:10:05;0.60;;;0.60;;
11943;SDS011;6031;50.220;10.122;2023-03-25T12:17:59;4.10;;;0.77;;
11943;SDS011;6031;50.220;10.122;2023-03-25T12:20:50;0.50;;;0.30;;
11943;SDS011;6031;50.220;10.122;2023-03-25T12:26:29;1.70;;;0.40;;
11943;SDS011;6031;50.220;10.122;2023-03-25T12:29:17;0.90;;;0.90;;
11943;SDS011;6031;50.220;10.122;2023-03-25T12:37:34;1.40;;;0.73;;
11943;SDS011;6031;50.220;10.122;2023-03-25T12:40:20;1.87;;;0.90;;
11943;SDS011;6031;50.220;10.122;2023-03-25T12:48:37;2.20;;;0.87;;
11943;SDS011;6031;50.220;10.122;2023-03-25T12:57:08;3.53;;;1.00;;
11943;SDS011;6031;50.220;10.122;2023-03-25T13:08:34;2.53;;;1.00;;
11943;SDS011;6031;50.220;10.122;2023-03-25T13:11:17;1.40;;;1.00;;
11943;SDS011;6031;50.220;10.122;2023-03-25T13:13:53;2.03;;;1.00;;
11943;SDS011;6031;50.220;10.122;2023-03-25T13:16:23;2.33;;;1.27;;
11943;SDS011;6031;50.220;10.122;2023-03-25T13:19:01;1.10;;;0.70;;
11943;SDS011;6031;50.220;10.122;2023-03-25T13:21:34;1.13;;;0.77;;
11943;SDS011;6031;50.220;10.122;2023-03-25T13:24:16;1.17;;;0.80;;
11943;SDS011;6031;50.220;10.122;2023-03-25T13:26:46;1.70;;;0.80;;
11943;SDS011;6031;50.220;10.122;2023-03-25T13:29:24;2.07;;;1.13;;
11943;SDS011;6031;50.220;10.122;2023-03-25T13:31:55;1.80;;;0.80;;
11943;SDS011;6031;50.220;10.122;2023-03-25T13:34:26;1.27;;;1.10;;
11943;SDS011;6031;50.220;10.122;2023-03-25T13:37:21;1.90;;;1.17;;
11943;SDS011;6031;50.220;10.122;2023-03-25T13:40:01;1.70;;;1.20;;
11943;SDS011;6031;50.220;10.122;2023-03-25T13:42:47;2.90;;;0.93;;
11943;SDS011;6031;50.220;10.122;2023-03-25T13:45:30;1.20;;;0.53;;
11943;SDS011;6031;50.220;10.122;2023-03-25T13:48:30;2.07;;;1.20;;
11943;SDS011;6031;50.220;10.122;2023-03-25T13:51:25;2.57;;;1.63;;
11943;SDS011;6031;50.220;10.122;2023-03-25T13:53:54;3.77;;;0.80;;
11943;SDS011;6031;50.220;10.122;2023-03-25T13:56:38;0.90;;;0.87;;
11943;SDS011;6031;50.220;10.122;2023-03-25T13:59:25;1.40;;;1.00;;
11943;SDS011;6031;50.220;10.122;2023-03-25T14:04:50;3.13;;;1.23;;
11943;SDS011;6031;50.220;10.122;2023-03-25T14:13:15;2.07;;;1.03;;
11943;SDS011;6031;50.220;10.122;2023-03-25T14:15:55;0.77;;;0.77;;
11943;SDS011;6031;50.220;10.122;2023-03-25T14:18:24;3.53;;;0.93;;
11943;SDS011;6031;50.220;10.122;2023-03-25T14:20:52;1.33;;;1.00;;
11943;SDS011;6031;50.220;10.122;2023-03-25T14:23:18;1.80;;;1.13;;
11943;SDS011;6031;50.220;10.122;2023-03-25T14:25:47;2.10;;;1.40;;
11943;SDS011;6031;50.220;10.122;2023-03-25T14:28:18;2.93;;;1.20;;
11943;SDS011;6031;50.220;10.122;2023-03-25T14:31:05;2.30;;;1.10;;
11943;SDS011;6031;50.220;10.122;2023-03-25T14:39:07;2.50;;;0.70;;
11943;SDS011;6031;50.220;10.122;2023-03-25T14:44:49;1.60;;;0.70;;
11943;SDS011;6031;50.220;10.122;2023-03-25T14:52:28;1.50;;;0.60;;
11943;SDS011;6031;50.220;10.122;2023-03-25T14:55:06;0.73;;;0.57;;
11943;SDS011;6031;50.220;10.122;2023-03-25T14:57:41;0.53;;;0.40;;
11943;SDS011;6031;50.220;10.122;2023-03-25T15:00:15;3.37;;;0.57;;
11943;SDS011;6031;50.220;10.122;2023-03-25T15:02:49;1.47;;;0.77;;
11943;SDS011;6031;50.220;10.122;2023-03-25T15:05:22;1.43;;;0.97;;
11943;SDS011;6031;50.220;10.122;2023-03-25T15:07:51;0.97;;;0.50;;
11943;SDS011;6031;50.220;10.122;2023-03-25T15:10:38;2.53;;;0.90;;
11943;SDS011;6031;50.220;10.122;2023-03-25T15:13:18;0.90;;;0.60;;
11943;SDS011;6031;50.220;10.122;2023-03-25T15:16:18;0.77;;;0.70;;
11943;SDS011;6031;50.220;10.122;2023-03-25T15:21:16;0.73;;;0.73;;
11943;SDS011;6031;50.220;10.122;2023-03-25T15:23:43;0.90;;;0.63;;
11943;SDS011;6031;50.220;10.122;2023-03-25T15:28:59;2.10;;;0.93;;
11943;SDS011;6031;50.220;10.122;2023-03-25T15:51:24;1.43;;;0.70;;
11943;SDS011;6031;50.220;10.122;2023-03-25T15:54:18;2.07;;;1.07;;
11943;SDS011;6031;50.220;10.122;2023-03-25T15:56:58;2.97;;;1.17;;
11943;SDS011;6031;50.220;10.122;2023-03-25T15:59:40;4.07;;;2.33;;
11943;SDS011;6031;50.220;10.122;2023-03-25T16:05:03;3.43;;;1.83;;
11943;SDS011;6031;50.220;10.122;2023-03-25T16:07:30;2.57;;;1.57;;
11943;SDS011;6031;50.220;10.122;2023-03-25T16:10:04;2.47;;;1.20;;
11943;SDS011;6031;50.220;10.122;2023-03-25T16:12:48;1.17;;;1.03;;
11943;SDS011;6031;50.220;10.122;2023-03-25T16:15:20;3.73;;;1.40;;
11943;SDS011;6031;50.220;10.122;2023-03-25T16:17:50;3.53;;;1.07;;
11943;SDS011;6031;50.220;10.122;2023-03-25T16:20:17;1.43;;;1.17;;
11943;SDS011;6031;50.220;10.122;2023-03-25T16:22:54;1.57;;;1.03;;
11943;SDS011;6031;50.220;10.122;2023-03-25T16:25:23;1.60;;;0.73;;
11943;SDS011;6031;50.220;10.122;2023-03-25T16:28:02;1.63;;;1.00;;
11943;SDS011;6031;50.220;10.122;2023-03-25T16:30:37;3.90;;;1.20;;
11943;SDS011;6031;50.220;10.122;2023-03-25T16:35:31;3.03;;;0.70;;
11943;SDS011;6031;50.220;10.122;2023-03-25T16:38:00;2.43;;;1.03;;
11943;SDS011;6031;50.220;10.122;2023-03-25T16:40:28;2.43;;;0.70;;
11943;SDS011;6031;50.220;10.122;2023-03-25T16:43:03;1.50;;;1.07;;
11943;SDS011;6031;50.220;10.122;2023-03-25T16:45:30;1.83;;;1.13;;
11943;SDS011;6031;50.220;10.122;2023-03-25T16:47:56;2.27;;;1.10;;
11943;SDS011;6031;50.220;10.122;2023-03-25T16:50:28;3.07;;;1.00;;
11943;SDS011;6031;50.220;10.122;2023-03-25T16:52:54;1.73;;;0.73;;
11943;SDS011;6031;50.220;10.122;2023-03-25T16:55:40;2.20;;;0.90;;
11943;SDS011;6031;50.220;10.122;2023-03-25T16:58:20;1.07;;;0.87;;
11943;SDS011;6031;50.220;10.122;2023-03-25T17:00:49;3.73;;;1.20;;
11943;SDS011;6031;50.220;10.122;2023-03-25T17:03:18;2.43;;;2.17;;
11943;SDS011;6031;50.220;10.122;2023-03-25T17:06:10;1.90;;;1.00;;
11943;SDS011;6031;50.220;10.122;2023-03-25T17:08:52;3.07;;;1.73;;
11943;SDS011;6031;50.220;10.122;2023-03-25T17:11:20;4.07;;;1.70;;
11943;SDS011;6031;50.220;10.122;2023-03-25T17:13:50;1.90;;;1.20;;
11943;SDS011;6031;50.220;10.122;2023-03-25T17:16:22;3.90;;;1.30;;
11943;SDS011;6031;50.220;10.122;2023-03-25T17:18:52;1.10;;;0.77;;
11943;SDS011;6031;50.220;10.122;2023-03-25T17:21:21;1.90;;;1.23;;
11943;SDS011;6031;50.220;10.122;2023-03-25T17:23:52;3.17;;;1.30;;
11943;SDS011;6031;50.220;10.122;2023-03-25T17:26:21;1.00;;;0.90;;
11943;SDS011;6031;50.220;10.122;2023-03-25T17:31:27;3.10;;;0.90;;
11943;SDS011;6031;50.220;10.122;2023-03-25T17:34:17;1.33;;;1.20;;
11943;SDS011;6031;50.220;10.122;2023-03-25T17:36:46;3.93;;;1.90;;